Time;durP1;ratioP1;P1;durP2;ratioP2;P2;SDS_P1;SDS_P2;PMS_P1;PMS_P2;Temp;Humidity;BMP_temperature;BMP_pressure;BME280_temperature;BME280_humidity;BME280_pressure;Samples;Min_cycle;Max_cycle;Signal;HPM_P1;HPM_P2
2022/11/20 00:00:44;;;;;;;5.80;3.47;;;;;;;;;;5059318;28;20557;-80
2022/11/20 00:03:10;;;;;;;7.40;3.28;;;;;;;;;;5059650;28;20076;-80
2022/11/20 00:05:36;;;;;;;7.07;2.80;;;;;;;;;;5057468;28;20049;-81
2022/11/20 00:08:02;;;;;;;6.88;4.38;;;;;;;;;;5039022;28;20045;-81
2022/11/20 00:10:29;;;;;;;8.45;3.67;;;;;;;;;;5057767;28;20049;-80
2022/11/20 00:12:55;;;;;;;8.00;3.75;;;;;;;;;;5057093;28;20088;-79
2022/11/20 00:15:21;;;;;;;8.13;3.38;;;;;;;;;;5057698;28;20072;-79
2022/11/20 00:17:47;;;;;;;6.45;3.60;;;;;;;;;;5039227;28;20268;-81
2022/11/20 00:20:13;;;;;;;7.10;4.05;;;;;;;;;;5032975;28;20056;-81
2022/11/20 00:22:39;;;;;;;6.50;3.13;;;;;;;;;;5057523;28;20538;-81
2022/11/20 00:25:05;;;;;;;8.10;3.90;;;;;;;;;;5056945;28;20041;-81
2022/11/20 00:27:31;;;;;;;8.77;3.92;;;;;;;;;;5057674;28;20041;-81
2022/11/20 00:29:58;;;;;;;7.47;3.53;;;;;;;;;;5057361;28;20099;-79
2022/11/20 00:32:24;;;;;;;11.60;3.67;;;;;;;;;;5056892;28;20045;-80
2022/11/20 00:34:50;;;;;;;17.23;4.10;;;;;;;;;;5055495;28;20041;-80
2022/11/20 00:37:16;;;;;;;5.93;4.15;;;;;;;;;;5031372;28;20044;-79
2022/11/20 00:39:42;;;;;;;10.70;3.92;;;;;;;;;;5056713;28;20041;-79
2022/11/20 00:42:08;;;;;;;9.13;5.60;;;;;;;;;;5056998;28;20584;-79
2022/11/20 00:44:34;;;;;;;10.60;4.15;;;;;;;;;;5055488;28;20124;-80
2022/11/20 00:47:00;;;;;;;10.57;4.53;;;;;;;;;;5057431;28;20040;-80
2022/11/20 00:49:26;;;;;;;8.55;4.28;;;;;;;;;;5058267;28;20041;-80
2022/11/20 00:51:52;;;;;;;13.70;4.20;;;;;;;;;;5055958;28;20045;-80
2022/11/20 00:54:18;;;;;;;6.75;4.22;;;;;;;;;;5056201;28;20055;-80
2022/11/20 00:56:44;;;;;;;14.85;4.22;;;;;;;;;;5058092;28;20106;-80
2022/11/20 00:59:11;;;;;;;11.95;3.65;;;;;;;;;;5056567;28;21613;-80
2022/11/20 01:01:37;;;;;;;8.38;3.78;;;;;;;;;;5056052;28;20041;-80
2022/11/20 01:04:03;;;;;;;7.80;4.20;;;;;;;;;;5032593;28;20045;-80
2022/11/20 01:06:31;;;;;;;11.05;3.92;;;;;;;;;;5056024;28;20087;-80
2022/11/20 01:08:59;;;;;;;7.10;4.25;;;;;;;;;;5054606;28;20059;-81
2022/11/20 01:11:27;;;;;;;9.90;3.90;;;;;;;;;;5056326;28;20473;-80
2022/11/20 01:13:54;;;;;;;11.45;4.75;;;;;;;;;;5056514;28;20087;-80
2022/11/20 01:16:28;;;;;;;8.18;4.30;;;;;;;;;;5031411;28;20463;-80
2022/11/20 01:18:56;;;;;;;15.30;5.00;;;;;;;;;;5056416;28;20048;-81
2022/11/20 01:21:32;;;;;;;6.70;4.05;;;;;;;;;;5052342;28;20045;-79
2022/11/20 01:23:59;;;;;;;15.05;5.05;;;;;;;;;;5054314;28;20037;-80
2022/11/20 01:26:26;;;;;;;11.35;3.97;;;;;;;;;;5056402;28;20052;-79
2022/11/20 01:28:53;;;;;;;8.27;4.43;;;;;;;;;;5036551;28;20037;-79
2022/11/20 01:31:22;;;;;;;7.22;4.18;;;;;;;;;;5056621;28;20080;-79
2022/11/20 01:33:50;;;;;;;9.10;4.30;;;;;;;;;;5056342;28;20091;-80
2022/11/20 01:36:17;;;;;;;10.80;4.35;;;;;;;;;;5037619;28;20037;-79
2022/11/20 01:38:43;;;;;;;8.27;4.40;;;;;;;;;;5053224;28;20597;-78
2022/11/20 01:41:10;;;;;;;10.20;4.32;;;;;;;;;;5037120;28;20077;-80
2022/11/20 01:43:36;;;;;;;6.53;3.53;;;;;;;;;;5054316;28;20557;-80
2022/11/20 01:46:19;;;;;;;10.70;4.60;;;;;;;;;;5036978;28;20072;-79
2022/11/20 01:48:44;;;;;;;;;;;;;;;;;;5056160;28;21254;-78
2022/11/20 01:51:16;;;;;;;7.13;4.25;;;;;;;;;;5031437;28;19924;-80
2022/11/20 01:53:42;;;;;;;10.23;4.15;;;;;;;;;;5035175;28;20037;-79
2022/11/20 01:56:10;;;;;;;8.43;3.85;;;;;;;;;;5055462;28;20124;-79
2022/11/20 01:58:39;;;;;;;8.32;4.78;;;;;;;;;;5036978;28;20044;-79
2022/11/20 02:01:05;;;;;;;10.95;4.28;;;;;;;;;;5053897;28;20076;-80
2022/11/20 02:03:32;;;;;;;6.38;3.65;;;;;;;;;;5054916;28;20535;-79
2022/11/20 02:06:04;;;;;;;6.47;4.35;;;;;;;;;;5036652;28;20056;-79
2022/11/20 02:08:30;;;;;;;10.82;3.70;;;;;;;;;;5054640;28;20570;-79
2022/11/20 02:10:57;;;;;;;9.23;3.95;;;;;;;;;;5057143;28;20522;-79
2022/11/20 02:16:28;;;;;;;10.18;4.90;;;;;;;;;;5059508;28;20045;-79
2022/11/20 02:18:55;;;;;;;9.40;6.20;;;;;;;;;;5059097;28;20045;-79
2022/11/20 02:21:37;;;;;;;8.68;3.65;;;;;;;;;;5055634;28;20045;-77
2022/11/20 02:24:09;;;;;;;5.10;3.38;;;;;;;;;;5058181;28;20043;-80
2022/11/20 02:26:40;;;;;;;4.38;3.88;;;;;;;;;;5057220;28;20032;-79
2022/11/20 02:29:06;;;;;;;9.50;4.68;;;;;;;;;;5057942;28;20040;-80
2022/11/20 02:31:40;;;;;;;10.50;4.35;;;;;;;;;;5058584;28;20049;-80
2022/11/20 02:34:06;;;;;;;8.77;4.25;;;;;;;;;;5059404;28;20514;-80
2022/11/20 02:36:33;;;;;;;9.57;4.35;;;;;;;;;;5055432;28;20037;-79
2022/11/20 02:38:59;;;;;;;5.68;3.83;;;;;;;;;;5058161;28;20229;-79
2022/11/20 02:41:36;;;;;;;5.63;3.53;;;;;;;;;;5057021;28;20052;-79
2022/11/20 02:44:02;;;;;;;13.30;4.13;;;;;;;;;;5056493;28;20535;-79
2022/11/20 02:46:28;;;;;;;6.55;4.18;;;;;;;;;;5057152;28;20045;-81
2022/11/20 02:48:55;;;;;;;6.32;3.67;;;;;;;;;;5032893;28;20556;-78
2022/11/20 02:51:21;;;;;;;7.38;3.70;;;;;;;;;;5057563;28;20061;-80
2022/11/20 02:53:47;;;;;;;7.13;4.35;;;;;;;;;;5055367;28;20965;-79
2022/11/20 02:56:14;;;;;;;9.45;4.53;;;;;;;;;;5034182;28;20438;-80
2022/11/20 02:58:40;;;;;;;8.02;4.63;;;;;;;;;;5032723;28;20033;-79
2022/11/20 03:01:06;;;;;;;10.30;4.28;;;;;;;;;;5057660;28;20685;-79
2022/11/20 03:03:32;;;;;;;9.93;5.20;;;;;;;;;;5058133;28;20043;-79
2022/11/20 03:06:01;;;;;;;7.90;4.07;;;;;;;;;;5057912;28;20060;-79
2022/11/20 03:08:28;;;;;;;9.02;4.85;;;;;;;;;;5055328;28;20037;-80
2022/11/20 03:10:55;;;;;;;6.38;4.57;;;;;;;;;;5058057;28;20158;-79
2022/11/20 03:13:21;;;;;;;10.63;3.58;;;;;;;;;;5058028;28;20056;-80
2022/11/20 03:15:47;;;;;;;8.52;3.67;;;;;;;;;;5058343;28;20043;-79
2022/11/20 03:18:13;;;;;;;7.93;4.30;;;;;;;;;;5058192;28;20041;-80
2022/11/20 03:20:39;;;;;;;15.93;4.03;;;;;;;;;;5040289;28;20069;-80
2022/11/20 03:23:05;;;;;;;6.03;3.53;;;;;;;;;;5058335;28;20124;-79
2022/11/20 03:25:31;;;;;;;9.68;3.75;;;;;;;;;;5058565;28;20049;-80
2022/11/20 03:27:58;;;;;;;7.25;3.75;;;;;;;;;;5057732;28;20056;-79
2022/11/20 03:30:24;;;;;;;6.65;3.50;;;;;;;;;;5059019;28;20591;-79
2022/11/20 03:32:53;;;;;;;7.82;4.40;;;;;;;;;;5059151;28;20132;-79
2022/11/20 03:35:19;;;;;;;7.00;4.00;;;;;;;;;;5058969;28;20067;-79
2022/11/20 03:37:46;;;;;;;8.75;3.65;;;;;;;;;;5059646;28;20404;-81
2022/11/20 03:40:13;;;;;;;10.10;4.35;;;;;;;;;;5058855;28;20045;-79
2022/11/20 03:42:45;;;;;;;8.52;3.95;;;;;;;;;;5063351;28;20048;-79
2022/11/20 03:45:12;;;;;;;9.07;4.25;;;;;;;;;;5043992;28;20107;-81
2022/11/20 03:47:38;;;;;;;7.93;3.78;;;;;;;;;;5062129;28;20033;-79
2022/11/20 03:50:04;;;;;;;6.57;4.30;;;;;;;;;;5044177;28;20873;-79
2022/11/20 03:52:30;;;;;;;9.05;5.43;;;;;;;;;;5038580;28;20971;-79
2022/11/20 03:54:56;;;;;;;7.38;4.18;;;;;;;;;;5058667;28;20157;-79
2022/11/20 03:57:22;;;;;;;10.48;3.90;;;;;;;;;;5035477;28;22066;-78
2022/11/20 03:59:48;;;;;;;10.35;4.90;;;;;;;;;;5060850;28;20041;-79
2022/11/20 04:02:14;;;;;;;14.98;6.25;;;;;;;;;;5059415;28;20128;-80
2022/11/20 04:04:41;;;;;;;13.93;4.68;;;;;;;;;;5057699;28;20127;-79
2022/11/20 04:07:07;;;;;;;8.38;5.00;;;;;;;;;;5059381;28;20045;-79
2022/11/20 04:09:33;;;;;;;10.15;6.50;;;;;;;;;;5057299;28;20491;-80
2022/11/20 04:11:59;;;;;;;10.68;4.43;;;;;;;;;;5058793;28;20510;-79
2022/11/20 04:14:25;;;;;;;13.52;5.18;;;;;;;;;;5057511;28;20037;-79
2022/11/20 04:16:51;;;;;;;7.47;5.38;;;;;;;;;;5040351;28;20045;-80
2022/11/20 04:19:19;;;;;;;16.83;5.47;;;;;;;;;;5057534;28;21125;-80
2022/11/20 04:21:45;;;;;;;7.15;4.85;;;;;;;;;;5058964;28;20048;-81
2022/11/20 04:24:12;;;;;;;7.18;5.20;;;;;;;;;;5056258;28;20048;-80
2022/11/20 04:26:38;;;;;;;11.70;4.45;;;;;;;;;;5055601;28;20037;-80
2022/11/20 04:29:07;;;;;;;10.57;4.72;;;;;;;;;;5056535;28;20077;-81
2022/11/20 04:31:34;;;;;;;11.02;4.40;;;;;;;;;;5057704;28;20098;-81
2022/11/20 04:34:05;;;;;;;10.00;4.85;;;;;;;;;;5058275;28;20187;-81
2022/11/20 04:36:31;;;;;;;8.23;3.92;;;;;;;;;;5056771;28;20099;-80
2022/11/20 04:38:59;;;;;;;6.75;4.00;;;;;;;;;;5057884;28;20127;-80
2022/11/20 04:41:26;;;;;;;10.68;4.82;;;;;;;;;;5056375;28;20324;-80
2022/11/20 04:43:58;;;;;;;7.03;3.88;;;;;;;;;;5033559;28;20452;-80
2022/11/20 04:46:25;;;;;;;9.30;4.75;;;;;;;;;;5058795;28;20576;-81
2022/11/20 04:48:51;;;;;;;7.25;4.55;;;;;;;;;;5038797;28;20174;-80
2022/11/20 04:51:17;;;;;;;9.35;4.25;;;;;;;;;;5057909;28;20033;-80
2022/11/20 04:53:44;;;;;;;7.40;3.88;;;;;;;;;;5057894;28;20049;-80
2022/11/20 04:56:11;;;;;;;8.02;4.07;;;;;;;;;;5060931;28;20049;-79
2022/11/20 04:58:38;;;;;;;6.72;3.95;;;;;;;;;;5060600;28;20048;-81
2022/11/20 05:01:10;;;;;;;12.40;4.00;;;;;;;;;;5044213;28;20048;-80
2022/11/20 05:03:36;;;;;;;16.85;4.93;;;;;;;;;;5062626;28;20090;-80
2022/11/20 05:06:10;;;;;;;8.45;4.45;;;;;;;;;;5036838;28;20054;-80
2022/11/20 05:08:41;;;;;;;5.85;3.58;;;;;;;;;;5061315;28;20189;-79
2022/11/20 05:11:08;;;;;;;9.70;3.83;;;;;;;;;;5061744;28;20052;-80
2022/11/20 05:13:34;;;;;;;8.57;4.25;;;;;;;;;;5059113;28;20619;-80
2022/11/20 05:16:08;;;;;;;6.60;3.85;;;;;;;;;;5042287;28;20454;-80
2022/11/20 05:18:34;;;;;;;11.30;3.88;;;;;;;;;;5039989;28;20041;-80
2022/11/20 05:21:00;;;;;;;7.15;4.05;;;;;;;;;;5060467;28;20553;-80
2022/11/20 05:23:27;;;;;;;9.80;4.18;;;;;;;;;;5041610;28;20041;-80
2022/11/20 05:25:55;;;;;;;7.75;4.10;;;;;;;;;;5059747;28;20126;-80
2022/11/20 05:28:21;;;;;;;7.47;3.60;;;;;;;;;;5043304;28;20079;-80
2022/11/20 05:30:47;;;;;;;6.68;4.20;;;;;;;;;;5058679;28;20037;-81
2022/11/20 05:33:14;;;;;;;7.07;4.25;;;;;;;;;;5061526;28;20103;-80
2022/11/20 05:35:43;;;;;;;7.07;4.22;;;;;;;;;;5064705;28;20544;-80
2022/11/20 05:38:12;;;;;;;6.78;3.55;;;;;;;;;;5046737;28;20069;-80
2022/11/20 05:40:38;;;;;;;8.35;4.10;;;;;;;;;;5051426;28;20045;-80
2022/11/20 05:43:04;;;;;;;6.20;3.97;;;;;;;;;;5053316;28;20136;-81
2022/11/20 05:45:30;;;;;;;6.40;3.65;;;;;;;;;;5081367;28;20133;-81
2022/11/20 05:48:00;;;;;;;5.55;2.88;;;;;;;;;;5060608;28;20064;-81
2022/11/20 05:50:27;;;;;;;7.80;3.30;;;;;;;;;;5046135;28;20049;-79
2022/11/20 05:52:53;;;;;;;10.45;3.33;;;;;;;;;;5068665;28;20049;-79
2022/11/20 05:55:19;;;;;;;6.63;3.65;;;;;;;;;;5065131;28;20029;-80
2022/11/20 05:57:45;;;;;;;8.52;4.40;;;;;;;;;;5065355;28;20159;-79
2022/11/20 06:00:11;;;;;;;5.53;3.50;;;;;;;;;;5044345;28;20048;-80
2022/11/20 06:02:37;;;;;;;6.70;3.58;;;;;;;;;;5069027;28;20093;-79
2022/11/20 06:05:03;;;;;;;7.40;3.63;;;;;;;;;;5073704;28;20087;-79
2022/11/20 06:07:29;;;;;;;6.03;3.40;;;;;;;;;;5080437;28;20048;-78
2022/11/20 06:09:56;;;;;;;6.75;3.28;;;;;;;;;;5082467;28;20037;-79
2022/11/20 06:12:22;;;;;;;10.07;3.65;;;;;;;;;;5048777;28;20122;-80
2022/11/20 06:14:48;;;;;;;5.80;2.83;;;;;;;;;;5050117;28;20036;-80
2022/11/20 06:17:14;;;;;;;7.03;3.60;;;;;;;;;;5068036;28;20045;-80
2022/11/20 06:19:40;;;;;;;9.27;3.78;;;;;;;;;;5064952;28;20569;-79
2022/11/20 06:22:06;;;;;;;5.15;2.58;;;;;;;;;;5062034;28;20033;-79
2022/11/20 06:24:32;;;;;;;7.80;3.10;;;;;;;;;;5040006;28;20033;-80
2022/11/20 06:26:58;;;;;;;9.88;3.38;;;;;;;;;;5064245;28;20045;-79
2022/11/20 06:29:24;;;;;;;4.47;3.85;;;;;;;;;;5062983;28;20044;-79
2022/11/20 06:31:50;;;;;;;6.40;2.60;;;;;;;;;;5062403;28;20041;-79
2022/11/20 06:34:16;;;;;;;4.75;3.05;;;;;;;;;;5062612;28;20036;-79
2022/11/20 06:36:42;;;;;;;8.18;3.67;;;;;;;;;;5061246;28;20045;-80
2022/11/20 06:39:09;;;;;;;7.07;3.58;;;;;;;;;;5064356;28;20041;-79
2022/11/20 06:41:35;;;;;;;8.93;3.78;;;;;;;;;;5058302;28;20139;-80
2022/11/20 06:44:01;;;;;;;7.85;3.45;;;;;;;;;;5061021;28;20037;-79
2022/11/20 06:46:27;;;;;;;13.02;3.97;;;;;;;;;;5062193;28;20103;-78
2022/11/20 06:48:53;;;;;;;5.45;2.75;;;;;;;;;;5061649;28;20128;-79
2022/11/20 06:51:19;;;;;;;8.38;3.28;;;;;;;;;;5043295;28;20162;-79
2022/11/20 06:53:45;;;;;;;6.50;2.85;;;;;;;;;;5041549;28;20041;-80
2022/11/20 06:56:11;;;;;;;7.25;3.63;;;;;;;;;;5035330;28;20049;-78
2022/11/20 06:58:37;;;;;;;8.40;3.20;;;;;;;;;;5059881;28;20128;-79
2022/11/20 07:01:05;;;;;;;6.43;3.05;;;;;;;;;;5059048;28;20128;-79
2022/11/20 07:03:31;;;;;;;6.13;2.90;;;;;;;;;;5057354;28;20041;-79
2022/11/20 07:05:58;;;;;;;7.45;3.50;;;;;;;;;;5059268;28;20065;-80
2022/11/20 07:08:24;;;;;;;6.47;3.28;;;;;;;;;;5058208;28;20044;-79
2022/11/20 07:10:51;;;;;;;9.60;3.10;;;;;;;;;;5058448;28;20112;-80
2022/11/20 07:13:17;;;;;;;6.60;3.13;;;;;;;;;;5058653;28;20111;-79
2022/11/20 07:15:43;;;;;;;7.78;3.25;;;;;;;;;;5034181;28;20068;-80
2022/11/20 07:18:09;;;;;;;14.25;3.67;;;;;;;;;;5034224;28;20133;-79
2022/11/20 07:20:35;;;;;;;7.80;3.45;;;;;;;;;;5058409;28;20463;-79
2022/11/20 07:23:01;;;;;;;9.15;4.30;;;;;;;;;;5058594;28;20594;-78
2022/11/20 07:25:28;;;;;;;6.40;4.22;;;;;;;;;;5058522;28;20053;-79
2022/11/20 07:28:01;;;;;;;5.10;3.63;;;;;;;;;;5057224;28;20128;-78
2022/11/20 07:30:28;;;;;;;4.00;2.92;;;;;;;;;;5058695;28;20059;-79
2022/11/20 07:32:55;;;;;;;7.05;3.90;;;;;;;;;;5058663;28;20048;-79
2022/11/20 07:35:21;;;;;;;9.35;3.58;;;;;;;;;;5057876;28;20103;-79
2022/11/20 07:37:48;;;;;;;13.02;3.75;;;;;;;;;;5058562;28;20041;-79
2022/11/20 07:40:14;;;;;;;5.40;3.45;;;;;;;;;;5059165;28;20215;-79
2022/11/20 07:42:47;;;;;;;6.50;2.95;;;;;;;;;;5058356;28;20135;-79
2022/11/20 07:45:13;;;;;;;8.90;3.88;;;;;;;;;;5057317;28;20041;-79
2022/11/20 07:47:40;;;;;;;13.13;4.43;;;;;;;;;;5056723;28;20505;-78
2022/11/20 07:50:07;;;;;;;7.78;3.42;;;;;;;;;;5058561;28;20052;-78
2022/11/20 07:52:34;;;;;;;7.97;3.35;;;;;;;;;;5057558;28;21594;-78
2022/11/20 07:55:00;;;;;;;8.10;3.92;;;;;;;;;;5034136;28;20049;-78
2022/11/20 07:57:26;;;;;;;6.72;3.20;;;;;;;;;;5058204;28;20048;-78
2022/11/20 07:59:53;;;;;;;9.45;3.40;;;;;;;;;;5058584;28;20129;-79
2022/11/20 08:02:19;;;;;;;8.23;3.30;;;;;;;;;;5056776;28;20037;-78
2022/11/20 08:04:45;;;;;;;7.72;3.05;;;;;;;;;;5056875;28;20044;-79
2022/11/20 08:07:11;;;;;;;7.03;3.55;;;;;;;;;;5057026;28;20060;-78
2022/11/20 08:09:37;;;;;;;6.38;3.78;;;;;;;;;;5056858;28;20090;-79
2022/11/20 08:14:48;;;;;;;8.68;4.47;;;;;;;;;;5055999;28;20045;-78
2022/11/20 08:17:14;;;;;;;10.00;4.30;;;;;;;;;;5053579;28;20049;-78
2022/11/20 08:19:40;;;;;;;7.97;3.80;;;;;;;;;;5054847;28;20040;-78
2022/11/20 08:22:06;;;;;;;10.48;5.57;;;;;;;;;;5055419;28;20056;-78
2022/11/20 08:24:32;;;;;;;14.90;6.70;;;;;;;;;;5047489;28;20055;-78
2022/11/20 08:26:59;;;;;;;14.13;7.28;;;;;;;;;;5035086;28;20092;-79
2022/11/20 08:29:26;;;;;;;9.68;6.63;;;;;;;;;;5055010;28;20045;-78
2022/11/20 08:31:52;;;;;;;9.63;5.65;;;;;;;;;;5055564;28;20561;-78
2022/11/20 08:34:18;;;;;;;14.98;7.22;;;;;;;;;;5055949;28;20069;-78
2022/11/20 08:36:44;;;;;;;11.93;7.10;;;;;;;;;;5055445;28;20084;-78
2022/11/20 08:39:13;;;;;;;15.23;6.10;;;;;;;;;;5056721;28;20067;-78
2022/11/20 08:41:39;;;;;;;11.35;6.35;;;;;;;;;;5055370;28;20041;-78
2022/11/20 08:44:08;;;;;;;7.13;5.03;;;;;;;;;;5057011;28;20109;-77
2022/11/20 08:46:35;;;;;;;6.53;4.32;;;;;;;;;;5054199;28;20041;-78
2022/11/20 08:49:01;;;;;;;11.55;5.00;;;;;;;;;;5035654;28;20044;-78
2022/11/20 08:51:27;;;;;;;9.13;4.97;;;;;;;;;;5050051;28;20045;-77
2022/11/20 08:53:53;;;;;;;9.20;3.88;;;;;;;;;;5053214;28;20056;-78
2022/11/20 08:56:19;;;;;;;9.60;4.68;;;;;;;;;;5052059;28;20037;-78
2022/11/20 08:58:45;;;;;;;8.30;3.35;;;;;;;;;;5054042;28;20190;-78
2022/11/20 09:01:11;;;;;;;12.02;4.03;;;;;;;;;;5050320;28;20041;-78
2022/11/20 09:03:37;;;;;;;6.30;4.18;;;;;;;;;;5031573;28;20172;-77
2022/11/20 09:06:05;;;;;;;9.80;4.18;;;;;;;;;;5023666;28;20053;-77
2022/11/20 09:08:31;;;;;;;7.10;4.40;;;;;;;;;;5035088;28;20040;-77
2022/11/20 09:10:58;;;;;;;7.93;4.45;;;;;;;;;;5034774;28;20498;-78
2022/11/20 09:13:24;;;;;;;9.45;3.67;;;;;;;;;;5035828;28;20045;-78
2022/11/20 09:16:01;;;;;;;6.82;3.63;;;;;;;;;;5054181;28;20037;-78
2022/11/20 09:18:28;;;;;;;9.52;3.92;;;;;;;;;;5049003;28;21266;-78
2022/11/20 09:20:57;;;;;;;7.40;4.30;;;;;;;;;;5052064;28;20036;-80
2022/11/20 09:23:23;;;;;;;8.13;4.05;;;;;;;;;;5050919;28;20049;-79
2022/11/20 09:25:50;;;;;;;10.15;4.40;;;;;;;;;;5047534;28;20048;-79
2022/11/20 09:28:18;;;;;;;7.60;4.88;;;;;;;;;;5032844;28;20037;-79
2022/11/20 09:30:44;;;;;;;12.10;7.00;;;;;;;;;;5052897;28;20037;-79
2022/11/20 09:33:10;;;;;;;10.68;4.82;;;;;;;;;;5050241;28;20053;-80
2022/11/20 09:35:36;;;;;;;9.82;5.10;;;;;;;;;;5025818;28;20809;-80
2022/11/20 09:38:10;;;;;;;13.18;6.40;;;;;;;;;;5052974;28;20161;-80
2022/11/20 09:40:38;;;;;;;8.48;4.32;;;;;;;;;;5029067;28;22493;-79
2022/11/20 09:43:09;;;;;;;6.38;4.50;;;;;;;;;;5053442;28;20049;-79
2022/11/20 09:45:59;;;;;;;7.85;4.65;;;;;;;;;;5052407;28;20052;-79
2022/11/20 09:48:43;;;;;;;6.13;3.90;;;;;;;;;;5035510;28;20059;-80
2022/11/20 09:51:28;;;;;;;5.50;3.50;;;;;;;;;;5049711;28;20084;-80
2022/11/20 09:53:57;;;;;;;5.55;4.07;;;;;;;;;;5050083;28;20041;-79
2022/11/20 09:56:23;;;;;;;9.77;4.20;;;;;;;;;;5052129;28;20048;-80
2022/11/20 09:58:51;;;;;;;9.32;5.35;;;;;;;;;;5050174;28;20051;-80
2022/11/20 10:01:17;;;;;;;8.88;4.75;;;;;;;;;;5049894;28;20703;-80
2022/11/20 10:03:50;;;;;;;7.70;4.07;;;;;;;;;;5052888;28;20158;-79
2022/11/20 10:06:15;;;;;;;;;;;;;;;;;;5034970;28;20053;-80
2022/11/20 10:08:57;;;;;;;11.85;3.95;;;;;;;;;;5052010;28;19921;-79
2022/11/20 10:11:32;;;;;;;8.40;4.10;;;;;;;;;;5047327;28;20538;-80
2022/11/20 10:14:17;;;;;;;9.73;3.67;;;;;;;;;;5050297;28;20046;-79
2022/11/20 10:16:51;;;;;;;14.27;5.47;;;;;;;;;;5049986;28;20665;-78
2022/11/20 10:19:20;;;;;;;8.80;3.85;;;;;;;;;;5045729;28;20103;-79
2022/11/20 10:21:58;;;;;;;6.53;3.13;;;;;;;;;;5033361;28;20045;-79
2022/11/20 10:24:33;;;;;;;9.38;2.60;;;;;;;;;;5024179;28;20401;-79
2022/11/20 10:27:02;;;;;;;7.63;3.55;;;;;;;;;;5048437;28;20037;-80
2022/11/20 10:29:33;;;;;;;4.57;2.58;;;;;;;;;;5031135;28;20047;-80
2022/11/20 10:32:04;;;;;;;8.65;3.25;;;;;;;;;;5024872;28;20044;-80
2022/11/20 10:34:54;;;;;;;8.43;4.07;;;;;;;;;;5030734;28;20045;-79
2022/11/20 10:37:23;;;;;;;5.55;3.47;;;;;;;;;;5002225;28;20048;-79
2022/11/20 10:40:08;;;;;;;6.43;2.30;;;;;;;;;;5049478;28;20041;-79
2022/11/20 10:42:41;;;;;;;5.00;2.67;;;;;;;;;;5049985;28;20120;-79
2022/11/20 10:45:19;;;;;;;5.30;2.78;;;;;;;;;;5031223;28;20048;-78
2022/11/20 10:47:45;;;;;;;3.83;2.67;;;;;;;;;;5049727;28;20087;-79
2022/11/20 10:50:14;;;;;;;6.10;4.07;;;;;;;;;;5026081;28;20041;-80
2022/11/20 10:52:47;;;;;;;14.85;3.50;;;;;;;;;;5034124;28;20507;-80
2022/11/20 10:55:28;;;;;;;2.97;1.83;;;;;;;;;;5050488;28;20568;-79
2022/11/20 10:57:57;;;;;;;3.97;2.42;;;;;;;;;;5049455;28;20961;-80
2022/11/20 11:00:24;;;;;;;4.15;2.00;;;;;;;;;;5052351;28;20734;-80
2022/11/20 11:03:02;;;;;;;4.40;2.53;;;;;;;;;;5051958;28;20080;-81
2022/11/20 11:05:38;;;;;;;5.43;2.00;;;;;;;;;;5051470;28;20053;-80
2022/11/20 11:08:06;;;;;;;3.80;1.77;;;;;;;;;;5052457;28;20686;-80
2022/11/20 11:10:42;;;;;;;5.68;1.88;;;;;;;;;;5052363;28;20056;-80
2022/11/20 11:13:19;;;;;;;3.97;2.20;;;;;;;;;;5027951;28;20051;-81
2022/11/20 11:15:45;;;;;;;5.85;2.63;;;;;;;;;;5051360;28;20120;-80
2022/11/20 11:18:11;;;;;;;2.95;1.80;;;;;;;;;;5051166;28;20048;-80
2022/11/20 11:20:38;;;;;;;4.35;2.33;;;;;;;;;;5031793;28;20884;-80
2022/11/20 11:23:04;;;;;;;5.72;2.42;;;;;;;;;;5036785;28;20677;-80
2022/11/20 11:25:35;;;;;;;4.15;2.03;;;;;;;;;;5055041;28;20514;-80
2022/11/20 11:28:05;;;;;;;3.25;2.83;;;;;;;;;;5031833;28;20075;-80
2022/11/20 11:30:41;;;;;;;4.13;2.17;;;;;;;;;;5055374;28;20557;-80
2022/11/20 11:33:10;;;;;;;6.25;2.30;;;;;;;;;;5056285;28;20151;-80
2022/11/20 11:35:44;;;;;;;2.78;1.83;;;;;;;;;;5052925;28;20052;-80
2022/11/20 11:38:15;;;;;;;3.83;2.30;;;;;;;;;;5053610;28;20045;-80
2022/11/20 11:40:41;;;;;;;3.27;1.83;;;;;;;;;;5056904;28;20045;-81
2022/11/20 11:46:02;;;;;;;6.35;2.65;;;;;;;;;;5053179;28;21160;-79
2022/11/20 11:48:28;;;;;;;5.03;3.42;;;;;;;;;;5060743;28;20037;-79
2022/11/20 11:50:54;;;;;;;3.45;2.03;;;;;;;;;;5056464;28;20043;-79
2022/11/20 11:53:26;;;;;;;5.55;2.70;;;;;;;;;;5054458;28;20072;-79
2022/11/20 11:56:18;;;;;;;5.82;3.22;;;;;;;;;;5053486;28;20128;-79
2022/11/20 11:58:44;;;;;;;;;;;;;;;;;;5048535;28;20063;-79
2022/11/20 12:01:30;;;;;;;6.30;2.63;;;;;;;;;;5054185;28;19921;-79
2022/11/20 12:04:02;;;;;;;2.95;2.00;;;;;;;;;;5055558;28;20617;-80
2022/11/20 12:06:31;;;;;;;4.13;2.70;;;;;;;;;;5051989;28;20084;-80
2022/11/20 12:09:03;;;;;;;4.15;2.45;;;;;;;;;;5053755;28;20040;-79
2022/11/20 12:11:35;;;;;;;7.00;3.13;;;;;;;;;;5050979;28;20049;-79
2022/11/20 12:14:04;;;;;;;2.10;1.48;;;;;;;;;;5033613;28;20600;-80
2022/11/20 12:16:31;;;;;;;5.55;2.83;;;;;;;;;;5051978;28;20055;-78
2022/11/20 12:18:57;;;;;;;5.40;3.03;;;;;;;;;;5051781;28;20052;-79
2022/11/20 12:21:23;;;;;;;8.85;3.78;;;;;;;;;;5053532;28;20041;-80
2022/11/20 12:23:52;;;;;;;5.32;2.92;;;;;;;;;;5053594;28;20049;-80
2022/11/20 12:26:21;;;;;;;5.53;2.20;;;;;;;;;;5052423;28;20073;-79
2022/11/20 12:28:53;;;;;;;4.25;2.20;;;;;;;;;;5048508;28;20696;-79
2022/11/20 12:31:25;;;;;;;4.05;2.40;;;;;;;;;;5051237;28;20040;-79
2022/11/20 12:33:51;;;;;;;;;;;;;;;;;;5055328;28;20543;-79
2022/11/20 12:36:28;;;;;;;8.00;2.78;;;;;;;;;;5051614;28;19925;-79
2022/11/20 12:39:04;;;;;;;3.72;2.20;;;;;;;;;;5052224;28;20678;-80
2022/11/20 12:47:34;;;;;;;8.02;3.35;;;;;;;;;;5052257;28;20057;-80
2022/11/20 12:50:00;;;;;;;5.05;2.22;;;;;;;;;;5032108;28;20055;-79
2022/11/20 12:52:33;;;;;;;5.00;1.88;;;;;;;;;;5047589;28;20064;-79
2022/11/20 12:55:16;;;;;;;10.13;2.15;;;;;;;;;;5028232;28;20162;-79
2022/11/20 12:58:05;;;;;;;5.20;2.53;;;;;;;;;;5050176;28;20051;-79
2022/11/20 13:00:34;;;;;;;6.50;2.60;;;;;;;;;;5024106;28;20445;-79
2022/11/20 13:03:03;;;;;;;6.55;2.60;;;;;;;;;;5049421;28;20029;-78
2022/11/20 13:05:44;;;;;;;3.97;1.60;;;;;;;;;;5051168;28;20135;-77
2022/11/20 13:08:26;;;;;;;3.53;2.10;;;;;;;;;;5052032;28;20049;-78
2022/11/20 13:10:57;;;;;;;4.35;2.13;;;;;;;;;;5051803;28;20310;-78
2022/11/20 13:13:42;;;;;;;9.88;2.65;;;;;;;;;;5052284;28;20542;-78
2022/11/20 13:16:11;;;;;;;5.88;3.78;;;;;;;;;;5032791;28;20044;-78
2022/11/20 13:18:41;;;;;;;11.93;2.47;;;;;;;;;;5050912;28;20081;-78
2022/11/20 13:21:17;;;;;;;4.65;2.15;;;;;;;;;;5050187;28;20041;-79
2022/11/20 13:23:43;;;;;;;4.75;2.95;;;;;;;;;;5045132;28;20087;-79
2022/11/20 13:26:17;;;;;;;8.02;2.30;;;;;;;;;;5033519;28;20164;-78
2022/11/20 13:28:43;;;;;;;5.60;1.45;;;;;;;;;;5049391;28;21442;-79
2022/11/20 13:31:24;;;;;;;8.82;3.38;;;;;;;;;;5049910;28;21426;-78
2022/11/20 13:33:53;;;;;;;7.80;2.35;;;;;;;;;;5033505;28;20696;-79
2022/11/20 13:36:24;;;;;;;5.80;1.77;;;;;;;;;;5024095;28;20047;-74
2022/11/20 13:38:51;;;;;;;6.00;2.90;;;;;;;;;;5031905;28;20581;-74
2022/11/20 13:41:43;;;;;;;16.50;3.47;;;;;;;;;;5050845;28;20049;-74
2022/11/20 13:44:13;;;;;;;4.95;2.13;;;;;;;;;;5023356;28;21012;-74
2022/11/20 13:46:42;;;;;;;4.40;1.75;;;;;;;;;;5025306;28;20091;-74
2022/11/20 13:49:31;;;;;;;7.50;2.45;;;;;;;;;;5049734;28;20048;-74
2022/11/20 13:52:04;;;;;;;8.27;2.47;;;;;;;;;;5037420;28;20164;-74
2022/11/20 13:54:51;;;;;;;12.40;3.80;;;;;;;;;;5049073;28;20037;-74
2022/11/20 13:57:36;;;;;;;9.13;2.75;;;;;;;;;;5030356;28;20049;-73
2022/11/20 14:00:11;;;;;;;8.05;2.25;;;;;;;;;;5025524;28;20565;-74
2022/11/20 14:02:37;;;;;;;16.75;5.00;;;;;;;;;;5046275;28;20597;-78
2022/11/20 14:05:04;;;;;;;8.25;2.40;;;;;;;;;;5026772;28;20049;-77
2022/11/20 14:07:38;;;;;;;5.53;2.63;;;;;;;;;;5030098;28;20123;-78
2022/11/20 14:10:05;;;;;;;16.95;2.97;;;;;;;;;;5055111;28;20052;-76
2022/11/20 14:12:32;;;;;;;8.80;3.78;;;;;;;;;;5053514;28;20041;-76
2022/11/20 14:14:59;;;;;;;9.00;3.08;;;;;;;;;;5034868;28;20169;-76
2022/11/20 14:17:30;;;;;;;12.90;3.78;;;;;;;;;;5052111;28;20103;-75
2022/11/20 14:20:01;;;;;;;11.70;2.92;;;;;;;;;;5055879;28;20515;-75
2022/11/20 14:22:28;;;;;;;6.20;2.83;;;;;;;;;;5034266;28;20045;-74
2022/11/20 14:25:03;;;;;;;8.85;4.47;;;;;;;;;;5036516;28;20094;-74
2022/11/20 14:27:29;;;;;;;5.68;2.30;;;;;;;;;;5054141;28;20048;-74
2022/11/20 14:29:55;;;;;;;6.53;2.30;;;;;;;;;;5028452;28;20045;-74
2022/11/20 14:32:25;;;;;;;8.60;3.05;;;;;;;;;;5048626;28;20110;-74
2022/11/20 14:34:51;;;;;;;16.13;4.68;;;;;;;;;;5053105;28;20033;-75
2022/11/20 14:37:20;;;;;;;13.05;3.80;;;;;;;;;;5053607;28;22244;-74
2022/11/20 14:39:51;;;;;;;11.57;2.92;;;;;;;;;;5050680;28;20048;-74
2022/11/20 14:42:20;;;;;;;6.00;2.63;;;;;;;;;;5052172;28;20072;-74
2022/11/20 14:44:48;;;;;;;7.75;2.83;;;;;;;;;;5052736;28;20915;-75
2022/11/20 14:47:15;;;;;;;8.52;2.50;;;;;;;;;;5053993;28;20047;-75
2022/11/20 14:49:42;;;;;;;7.18;2.65;;;;;;;;;;5034309;28;20435;-74
2022/11/20 14:52:16;;;;;;;13.35;4.53;;;;;;;;;;5051465;28;20731;-74
2022/11/20 14:54:49;;;;;;;17.80;6.03;;;;;;;;;;5052200;28;20041;-72
2022/11/20 14:57:21;;;;;;;14.85;3.00;;;;;;;;;;5052088;28;20920;-75
2022/11/20 14:59:47;;;;;;;;;;;;;;;;;;5054824;28;20638;-74
2022/11/20 15:02:13;;;;;;;9.75;2.35;;;;;;;;;;5052683;28;20011;-74
2022/11/20 15:04:46;;;;;;;6.60;1.92;;;;;;;;;;5048662;28;20112;-75